Subject: Data/NEA/May 19_98/Voyager/Miller

mike williamson (williams@www1.wheelock.edu)
Thu, 4 Jun 1998 08:58:57 -0400 (EDT)

~~~~~~~~~~~~~~~~~~~~~~~~~~~~~~~~~~~~~~~~~~~~~~~~~~~~~~~~~~~~
Port of Departure: N.E. Aquarium
Date: 5/19/98
School/Org:  WhaleNet
Sea State:  calm
Wave Height:  1ft
Wind Velocity and Direction:  8kts/WNW
Air Temp:  75F
Cloud Cover:  10%
Visibility:  20nm
High Tide(time):  18:17
Recorders:  Diane Miller

Time, LatN, LongW, Depth(ft), Species, Number, Grouping,
Behavior, Names, Water Temp.&Density&Salinity
exit 10:46, 42 20N, 70 59W
11:06, 42 20N, 70 49.9W, 100
11:26, 42 17N, 70 38W, 172
11:46, 42 15N, 70 27W, 252
12:06, 42 14N, 70 21.9W, 224
12:26, 42 12.7N, 70 14.9W, 80
12:34, 42 11.9N, 70 11W, 125, Bp, 1, 1, breaching
12:38, 42 11.5N, 70 08W, Bp, 1, 1, breaching & logging
12:46, 42 11.2N, 70 07.9W, 147
12:59, 42 10N, 70 02W, 370, Bp, 1, 1, breaching
12:59, 42 10N, 70 02W, 370, Mn, 1, 1, breaching
13:00, 42 10N, 70 02W, 370, La, 20, 10+10, traveling
13:01, 42 10N, 70 02W, 370, Mn, 2, 2, breaching, Salt&calf
13:01, 42 10N, 70 02W, 370, Bp, 1, 1, breaching
13:02, 42 10N, 70 02W, 370, Mn, 2, 2, breaching, Pepper&calf
13:0Williamson
Principal , 70 02W, 370, Mn, 2, 2, breaching,
Pepper&calf
13:03, 42 10N, 70 02W, 370, La, 20, 10+4+6, traveling
13:04, 42 10N, 70 02W, 370, Mn, 2, 2, diving,
Salt&calf
13:04, 42 10N, 70 02W, 370, Mn, 1, 1, diving
13:05, 42 10N, 70 02W, 370, La, 20, 10+4+6, traveling
13:06, 42 10N, 70 02W, 370, Mn, 2, 2, diving,
Pepper&calf
13:06, 42 10N, 70 02W, 370, Bp, 2, 2, diving
13:07, 42 10N, 70 02W, 370, Mn, 3, 2+1, diving,
Salt&calf+?
13:08, 42 10N, 70 02W, 370, Bp, 4, 3+1, breach
13:08, 42 10N, 70 02W, 370, La, 6, 6, traveling
13:08, 42 10N, 70 02W, 370, Mn, 3, 2+1, breach+diving
13:08, 42 10N, 70 02W, 370, Bp, 5, 3+2, breaching
13:10, 42 10N, 70 02W, 370, Mn, 5, 1+2+2,
diving+traveling+traveling, ?+Salt&calf+Pepper&calf
13:12, 42 10N, 70  02W, 370, Bp, 1, 1, open-mouth
feeding
13:14, 42 10N, 70 02W, 370, La, 11, 2+3+6,
traveling+traveling+playing
13:16, 42 10N, 70 02W, 370, Mn, 2, 2, diving
13:16, 42 10N, 70 02W, 370, Bp,Investigator-WhaleNet
<g
13:17, 42 10N, 70 02W, 370, Mn, 5, 5, feeding, ? 
& Salt&calf & Pepper&calf
13:19, 42 10N, 70 02W, 370, Mn, 5, 2+2+1, Salt
diving&calf feeding/breaching & Pepper
diving&calf feeding & ?feed
13:22, 42 10N, 70 02W, 370, Mn, 5, 2+1+1, S
breaching&calf diving+Pscalf diving+?feeding
13:22, 42 10N, 70 02W, 370, Bp, 1, 1, diving
13:24, 42 10N, 70 02W, 370, Bp, 1, 1, breaching
13:25, 42 10N, 70 02W, 370, Mn, 5, 2+2+1, Ss
calf breaching+P&Ps calf breaching+ ? diving
13:28, 42 10N, 70 02W, 370, Mn, 3, 2+1,
breaching & traveling, a youth and mom/calf pair
13:28, 42 10N, 70 02W, 370, La, 1, 1, traveling
& playing with young Mn
13:29, 42 10N, 70 02W, 370, Mn, 2, 2, diving
13:29, 42 10N, 70 02W, 370, Bp, 4, 2+1+1,
traveling+traveling+diving
13:29, 42 10N, 70 02W, 370, Mn, 2, 2, diving
13:29, 42 10N, 70 02W, 370, La, 4, 4, traveling
13:31, 42 10N, 70 02W, 370, Bp, 3, 3, traveling
14:31, 42 15N, 70 27W, 257

Day Totals: Hrs: 3.75, Mn:5, Bp:5, La:20

~~~~~~~~~~~~~~~~~~~~~~~~~~~~~~~~~~~~~~~~~~~~~~~~~~~~~~~~~~~~